sensor_id;sensor_type;location;lat;lon;timestamp;pressure;altitude;pressure_sealevel;temperature;humidity
75513;BME280;64090;49.770;18.760;2023-08-06T00:01:55;96425.87;;;17.35;100.00
75513;BME280;64090;49.770;18.760;2023-08-06T00:04:58;96408.85;;;17.33;100.00
75513;BME280;64090;49.770;18.760;2023-08-06T00:08:02;96390.32;;;17.31;100.00
75513;BME280;64090;49.770;18.760;2023-08-06T00:11:07;96372.35;;;17.29;100.00
75513;BME280;64090;49.770;18.760;2023-08-06T00:14:10;96374.41;;;17.26;100.00
75513;BME280;64090;49.770;18.760;2023-08-06T00:17:13;96376.09;;;17.25;100.00
75513;BME280;64090;49.770;18.760;2023-08-06T00:20:17;96366.21;;;17.24;100.00
75513;BME280;64090;49.770;18.760;2023-08-06T00:23:20;96357.86;;;17.20;100.00
75513;BME280;64090;49.770;18.760;2023-08-06T00:26:25;96348.95;;;17.20;100.00
75513;BME280;64090;49.770;18.760;2023-08-06T00:29:28;96342.14;;;17.19;100.00
75513;BME280;64090;49.770;18.760;2023-08-06T00:32:32;96344.09;;;17.17;100.00
75513;BME280;64090;49.770;18.760;2023-08-06T00:35:35;96342.96;;;17.17;100.00
75513;BME280;64090;49.770;18.760;2023-08-06T00:38:39;96344.58;;;17.17;100.00
75513;BME280;64090;49.770;18.760;2023-08-06T00:41:43;96344.10;;;17.16;100.00
75513;BME280;64090;49.770;18.760;2023-08-06T00:44:47;96340.58;;;17.14;100.00
75513;BME280;64090;49.770;18.760;2023-08-06T00:47:51;96327.55;;;17.09;100.00
75513;BME280;64090;49.770;18.760;2023-08-06T00:50:55;96315.23;;;17.02;100.00
75513;BME280;64090;49.770;18.760;2023-08-06T00:53:59;96314.13;;;16.97;100.00
75513;BME280;64090;49.770;18.760;2023-08-06T00:57:03;96307.79;;;16.91;100.00
75513;BME280;64090;49.770;18.760;2023-08-06T01:00:07;96298.09;;;16.87;100.00
75513;BME280;64090;49.770;18.760;2023-08-06T01:03:11;96289.88;;;16.81;100.00
75513;BME280;64090;49.770;18.760;2023-08-06T01:06:19;96278.95;;;16.77;100.00
75513;BME280;64090;49.770;18.760;2023-08-06T01:09:45;96267.55;;;16.71;100.00
75513;BME280;64090;49.770;18.760;2023-08-06T01:13:02;96248.59;;;16.65;100.00
75513;BME280;64090;49.770;18.760;2023-08-06T01:16:11;96229.98;;;16.59;100.00
75513;BME280;64090;49.770;18.760;2023-08-06T01:19:18;96220.87;;;16.56;100.00
75513;BME280;64090;49.770;18.760;2023-08-06T01:22:23;96207.37;;;16.53;100.00
75513;BME280;64090;49.770;18.760;2023-08-06T01:25:49;96205.48;;;16.50;100.00
75513;BME280;64090;49.770;18.760;2023-08-06T01:32:21;96205.88;;;16.44;100.00
75513;BME280;64090;49.770;18.760;2023-08-06T01:35:26;96179.40;;;16.43;100.00
75513;BME280;64090;49.770;18.760;2023-08-06T01:38:30;96163.66;;;16.39;100.00
75513;BME280;64090;49.770;18.760;2023-08-06T01:41:34;96176.76;;;16.38;100.00
75513;BME280;64090;49.770;18.760;2023-08-06T01:44:37;96188.45;;;16.37;100.00
75513;BME280;64090;49.770;18.760;2023-08-06T01:47:41;96183.50;;;16.34;100.00
75513;BME280;64090;49.770;18.760;2023-08-06T01:50:46;96187.65;;;16.32;100.00
75513;BME280;64090;49.770;18.760;2023-08-06T01:53:49;96184.05;;;16.31;100.00
75513;BME280;64090;49.770;18.760;2023-08-06T01:56:53;96198.10;;;16.32;100.00
75513;BME280;64090;49.770;18.760;2023-08-06T01:59:56;96201.16;;;16.32;100.00
75513;BME280;64090;49.770;18.760;2023-08-06T02:02:59;96187.71;;;16.30;100.00
75513;BME280;64090;49.770;18.760;2023-08-06T02:06:03;96179.09;;;16.28;100.00
75513;BME280;64090;49.770;18.760;2023-08-06T02:09:06;96182.42;;;16.26;100.00
75513;BME280;64090;49.770;18.760;2023-08-06T02:12:10;96171.92;;;16.25;100.00
75513;BME280;64090;49.770;18.760;2023-08-06T02:15:13;96181.36;;;16.25;100.00
75513;BME280;64090;49.770;18.760;2023-08-06T02:18:17;96179.38;;;16.25;100.00
75513;BME280;64090;49.770;18.760;2023-08-06T02:21:21;96186.84;;;16.25;100.00
75513;BME280;64090;49.770;18.760;2023-08-06T02:24:24;96189.78;;;16.25;100.00
75513;BME280;64090;49.770;18.760;2023-08-06T02:27:28;96177.51;;;16.25;100.00
75513;BME280;64090;49.770;18.760;2023-08-06T02:30:31;96175.15;;;16.25;100.00
75513;BME280;64090;49.770;18.760;2023-08-06T02:33:36;96172.83;;;16.25;100.00
75513;BME280;64090;49.770;18.760;2023-08-06T02:36:40;96172.68;;;16.26;100.00
75513;BME280;64090;49.770;18.760;2023-08-06T02:39:44;96167.58;;;16.26;100.00
75513;BME280;64090;49.770;18.760;2023-08-06T02:42:48;96161.28;;;16.28;100.00
75513;BME280;64090;49.770;18.760;2023-08-06T02:45:52;96160.91;;;16.28;100.00
75513;BME280;64090;49.770;18.760;2023-08-06T02:48:57;96155.61;;;16.26;100.00
75513;BME280;64090;49.770;18.760;2023-08-06T02:52:01;96144.58;;;16.26;100.00
75513;BME280;64090;49.770;18.760;2023-08-06T02:55:06;96140.33;;;16.27;100.00
75513;BME280;64090;49.770;18.760;2023-08-06T02:58:10;96153.45;;;16.26;100.00
75513;BME280;64090;49.770;18.760;2023-08-06T03:01:14;96152.46;;;16.25;100.00
75513;BME280;64090;49.770;18.760;2023-08-06T03:04:18;96151.08;;;16.24;100.00
75513;BME280;64090;49.770;18.760;2023-08-06T03:07:22;96153.77;;;16.24;100.00
75513;BME280;64090;49.770;18.760;2023-08-06T03:10:27;96148.08;;;16.23;100.00
75513;BME280;64090;49.770;18.760;2023-08-06T03:13:31;96149.79;;;16.24;100.00
75513;BME280;64090;49.770;18.760;2023-08-06T03:16:35;96155.05;;;16.23;100.00
75513;BME280;64090;49.770;18.760;2023-08-06T03:19:39;96155.10;;;16.23;100.00
75513;BME280;64090;49.770;18.760;2023-08-06T03:22:43;96159.94;;;16.22;100.00
75513;BME280;64090;49.770;18.760;2023-08-06T03:25:46;96163.69;;;16.21;100.00
75513;BME280;64090;49.770;18.760;2023-08-06T03:28:50;96153.10;;;16.20;100.00
75513;BME280;64090;49.770;18.760;2023-08-06T03:31:54;96151.91;;;16.21;100.00
75513;BME280;64090;49.770;18.760;2023-08-06T03:34:58;96149.23;;;16.21;100.00
75513;BME280;64090;49.770;18.760;2023-08-06T03:38:01;96148.25;;;16.20;100.00
75513;BME280;64090;49.770;18.760;2023-08-06T03:41:05;96146.92;;;16.21;100.00
75513;BME280;64090;49.770;18.760;2023-08-06T03:44:09;96139.36;;;16.20;100.00
75513;BME280;64090;49.770;18.760;2023-08-06T03:47:13;96130.30;;;16.20;100.00
75513;BME280;64090;49.770;18.760;2023-08-06T03:50:16;96120.20;;;16.18;100.00
75513;BME280;64090;49.770;18.760;2023-08-06T03:53:20;96100.89;;;16.16;100.00
75513;BME280;64090;49.770;18.760;2023-08-06T03:56:24;96099.48;;;16.12;100.00
75513;BME280;64090;49.770;18.760;2023-08-06T03:59:27;96100.63;;;16.09;100.00
75513;BME280;64090;49.770;18.760;2023-08-06T04:02:31;96096.08;;;16.08;100.00
75513;BME280;64090;49.770;18.760;2023-08-06T04:05:35;96096.10;;;16.04;100.00
75513;BME280;64090;49.770;18.760;2023-08-06T04:08:38;96097.91;;;16.06;100.00
75513;BME280;64090;49.770;18.760;2023-08-06T04:11:41;96101.14;;;16.04;100.00
75513;BME280;64090;49.770;18.760;2023-08-06T04:14:45;96097.23;;;16.03;100.00
75513;BME280;64090;49.770;18.760;2023-08-06T04:17:49;96091.16;;;15.99;100.00
75513;BME280;64090;49.770;18.760;2023-08-06T04:20:53;96091.30;;;15.96;100.00
75513;BME280;64090;49.770;18.760;2023-08-06T04:23:59;96087.19;;;15.93;100.00
75513;BME280;64090;49.770;18.760;2023-08-06T04:27:03;96081.24;;;15.93;100.00
75513;BME280;64090;49.770;18.760;2023-08-06T04:30:07;96080.07;;;15.93;100.00
75513;BME280;64090;49.770;18.760;2023-08-06T04:33:12;96083.04;;;15.90;100.00
75513;BME280;64090;49.770;18.760;2023-08-06T04:36:17;96083.91;;;15.88;100.00
75513;BME280;64090;49.770;18.760;2023-08-06T04:39:20;96082.55;;;15.90;100.00
75513;BME280;64090;49.770;18.760;2023-08-06T04:42:24;96077.05;;;15.89;100.00
75513;BME280;64090;49.770;18.760;2023-08-06T04:45:28;96070.21;;;15.84;100.00
75513;BME280;64090;49.770;18.760;2023-08-06T04:48:33;96069.42;;;15.75;100.00
75513;BME280;64090;49.770;18.760;2023-08-06T04:51:36;96070.11;;;15.70;100.00
75513;BME280;64090;49.770;18.760;2023-08-06T04:54:43;96071.75;;;15.71;100.00
75513;BME280;64090;49.770;18.760;2023-08-06T04:57:47;96070.66;;;15.63;100.00
75513;BME280;64090;49.770;18.760;2023-08-06T05:00:51;96071.78;;;15.55;100.00
75513;BME280;64090;49.770;18.760;2023-08-06T05:03:56;96070.79;;;15.52;100.00
75513;BME280;64090;49.770;18.760;2023-08-06T05:07:00;96072.91;;;15.47;100.00
75513;BME280;64090;49.770;18.760;2023-08-06T05:10:04;96070.35;;;15.46;100.00
75513;BME280;64090;49.770;18.760;2023-08-06T05:13:09;96068.77;;;15.40;100.00
75513;BME280;64090;49.770;18.760;2023-08-06T05:16:12;96064.88;;;15.38;100.00
75513;BME280;64090;49.770;18.760;2023-08-06T05:19:17;96062.41;;;15.39;100.00
75513;BME280;64090;49.770;18.760;2023-08-06T05:22:20;96056.20;;;15.39;100.00
75513;BME280;64090;49.770;18.760;2023-08-06T05:25:27;96055.22;;;15.42;100.00
75513;BME280;64090;49.770;18.760;2023-08-06T05:28:31;96054.93;;;15.44;100.00
75513;BME280;64090;49.770;18.760;2023-08-06T05:31:34;96058.51;;;15.47;100.00
75513;BME280;64090;49.770;18.760;2023-08-06T05:34:39;96063.84;;;15.48;100.00
75513;BME280;64090;49.770;18.760;2023-08-06T05:37:45;96069.95;;;15.50;100.00
75513;BME280;64090;49.770;18.760;2023-08-06T05:40:49;96066.66;;;15.52;100.00
75513;BME280;64090;49.770;18.760;2023-08-06T05:43:52;96064.89;;;15.52;100.00
75513;BME280;64090;49.770;18.760;2023-08-06T05:46:57;96066.11;;;15.54;100.00
75513;BME280;64090;49.770;18.760;2023-08-06T05:50:00;96064.16;;;15.50;100.00
75513;BME280;64090;49.770;18.760;2023-08-06T05:53:04;96053.63;;;15.48;100.00
75513;BME280;64090;49.770;18.760;2023-08-06T05:56:07;96040.77;;;15.49;99.83
75513;BME280;64090;49.770;18.760;2023-08-06T05:59:11;96050.60;;;15.42;99.60
75513;BME280;64090;49.770;18.760;2023-08-06T06:02:14;96049.81;;;15.33;99.88
75513;BME280;64090;49.770;18.760;2023-08-06T06:05:18;96051.70;;;15.30;100.00
75513;BME280;64090;49.770;18.760;2023-08-06T06:08:21;96040.58;;;15.27;100.00
75513;BME280;64090;49.770;18.760;2023-08-06T06:11:25;96029.25;;;15.23;100.00
75513;BME280;64090;49.770;18.760;2023-08-06T06:14:29;96022.65;;;15.25;100.00
75513;BME280;64090;49.770;18.760;2023-08-06T06:17:37;96029.23;;;15.24;100.00
75513;BME280;64090;49.770;18.760;2023-08-06T06:20:40;96031.48;;;15.25;99.86
75513;BME280;64090;49.770;18.760;2023-08-06T06:23:48;96022.31;;;15.18;99.36
75513;BME280;64090;49.770;18.760;2023-08-06T06:26:56;96021.08;;;15.10;99.05
75513;BME280;64090;49.770;18.760;2023-08-06T06:30:00;96027.80;;;15.05;99.27
75513;BME280;64090;49.770;18.760;2023-08-06T06:33:07;96025.10;;;15.06;99.04
75513;BME280;64090;49.770;18.760;2023-08-06T06:36:10;96025.58;;;15.11;99.17
75513;BME280;64090;49.770;18.760;2023-08-06T06:39:15;96028.23;;;15.13;98.81
75513;BME280;64090;49.770;18.760;2023-08-06T06:42:19;96030.05;;;15.15;98.94
75513;BME280;64090;49.770;18.760;2023-08-06T06:45:22;96030.25;;;15.17;98.56
75513;BME280;64090;49.770;18.760;2023-08-06T06:48:31;96029.60;;;15.09;97.81
75513;BME280;64090;49.770;18.760;2023-08-06T06:51:35;96022.19;;;15.04;98.15
75513;BME280;64090;49.770;18.760;2023-08-06T06:54:42;96022.14;;;15.02;98.06
75513;BME280;64090;49.770;18.760;2023-08-06T06:57:45;96016.08;;;14.96;98.14
75513;BME280;64090;49.770;18.760;2023-08-06T07:00:48;96021.91;;;14.97;98.27
75513;BME280;64090;49.770;18.760;2023-08-06T07:03:52;96030.05;;;14.95;98.69
75513;BME280;64090;49.770;18.760;2023-08-06T07:06:56;96033.15;;;14.96;98.32
75513;BME280;64090;49.770;18.760;2023-08-06T07:09:59;96042.33;;;14.98;98.24
75513;BME280;64090;49.770;18.760;2023-08-06T07:13:06;96039.98;;;14.98;97.96
75513;BME280;64090;49.770;18.760;2023-08-06T07:16:14;96037.38;;;14.94;97.47
75513;BME280;64090;49.770;18.760;2023-08-06T07:19:17;96038.65;;;14.97;97.53
75513;BME280;64090;49.770;18.760;2023-08-06T07:22:21;96035.55;;;14.96;97.53
75513;BME280;64090;49.770;18.760;2023-08-06T07:25:24;96032.71;;;14.98;97.62
75513;BME280;64090;49.770;18.760;2023-08-06T07:28:28;96028.13;;;14.96;97.34
75513;BME280;64090;49.770;18.760;2023-08-06T07:31:35;96031.06;;;14.92;97.16
75513;BME280;64090;49.770;18.760;2023-08-06T07:34:40;96027.69;;;14.87;97.07
75513;BME280;64090;49.770;18.760;2023-08-06T07:38:07;96022.31;;;14.87;97.18
75513;BME280;64090;49.770;18.760;2023-08-06T07:41:10;96024.45;;;14.93;96.90
75513;BME280;64090;49.770;18.760;2023-08-06T07:44:14;96019.83;;;14.93;96.99
75513;BME280;64090;49.770;18.760;2023-08-06T07:47:19;96026.06;;;14.99;97.12
75513;BME280;64090;49.770;18.760;2023-08-06T07:50:22;96031.59;;;15.07;96.98
75513;BME280;64090;49.770;18.760;2023-08-06T07:53:26;96034.51;;;15.12;96.30
75513;BME280;64090;49.770;18.760;2023-08-06T07:56:34;96038.65;;;15.17;96.16
75513;BME280;64090;49.770;18.760;2023-08-06T07:59:43;96037.64;;;15.24;95.94
75513;BME280;64090;49.770;18.760;2023-08-06T08:02:46;96035.44;;;15.18;95.13
75513;BME280;64090;49.770;18.760;2023-08-06T08:05:50;96026.98;;;15.16;95.64
75513;BME280;64090;49.770;18.760;2023-08-06T08:08:55;96024.63;;;15.25;95.49
75513;BME280;64090;49.770;18.760;2023-08-06T08:11:59;96018.96;;;15.33;95.57
75513;BME280;64090;49.770;18.760;2023-08-06T08:15:05;96018.85;;;15.34;95.23
75513;BME280;64090;49.770;18.760;2023-08-06T08:18:11;96018.10;;;15.34;95.24
75513;BME280;64090;49.770;18.760;2023-08-06T08:21:14;96014.44;;;15.44;94.65
75513;BME280;64090;49.770;18.760;2023-08-06T08:24:31;96010.77;;;15.48;93.82
75513;BME280;64090;49.770;18.760;2023-08-06T08:27:54;96014.78;;;15.48;93.26
75513;BME280;64090;49.770;18.760;2023-08-06T08:31:40;96013.27;;;15.51;92.90
75513;BME280;64090;49.770;18.760;2023-08-06T08:35:19;96013.88;;;15.48;92.49
75513;BME280;64090;49.770;18.760;2023-08-06T08:39:14;96017.63;;;15.47;93.35
75513;BME280;64090;49.770;18.760;2023-08-06T08:43:05;96015.20;;;15.58;93.15
75513;BME280;64090;49.770;18.760;2023-08-06T08:46:55;96017.41;;;15.69;93.26
75513;BME280;64090;49.770;18.760;2023-08-06T08:50:45;96022.06;;;15.73;92.44
75513;BME280;64090;49.770;18.760;2023-08-06T08:54:39;96024.70;;;15.73;92.16
75513;BME280;64090;49.770;18.760;2023-08-06T08:58:32;96025.23;;;15.71;91.89
75513;BME280;64090;49.770;18.760;2023-08-06T09:01:59;96027.79;;;15.59;91.17
75513;BME280;64090;49.770;18.760;2023-08-06T09:06:01;96028.36;;;15.59;91.23
75513;BME280;64090;49.770;18.760;2023-08-06T09:09:31;96033.29;;;15.59;91.54
75513;BME280;64090;49.770;18.760;2023-08-06T09:13:26;96027.17;;;15.39;91.38
75513;BME280;64090;49.770;18.760;2023-08-06T09:17:15;96027.48;;;15.31;92.14
75513;BME280;64090;49.770;18.760;2023-08-06T09:20:58;96030.80;;;15.21;92.29
75513;BME280;64090;49.770;18.760;2023-08-06T09:24:41;96026.98;;;15.14;92.72
75513;BME280;64090;49.770;18.760;2023-08-06T09:28:42;96030.47;;;15.14;92.57
75513;BME280;64090;49.770;18.760;2023-08-06T09:32:22;96029.15;;;15.11;92.75
75513;BME280;64090;49.770;18.760;2023-08-06T09:35:49;96034.61;;;15.14;92.58
75513;BME280;64090;49.770;18.760;2023-08-06T09:39:27;96042.02;;;15.20;92.86
75513;BME280;64090;49.770;18.760;2023-08-06T09:43:20;96050.23;;;15.14;92.69
75513;BME280;64090;49.770;18.760;2023-08-06T09:47:15;96049.69;;;15.17;92.84
75513;BME280;64090;49.770;18.760;2023-08-06T09:50:51;96047.17;;;15.14;92.26
75513;BME280;64090;49.770;18.760;2023-08-06T09:54:36;96047.06;;;15.16;92.48
75513;BME280;64090;49.770;18.760;2023-08-06T09:58:36;96049.30;;;15.28;92.75
75513;BME280;64090;49.770;18.760;2023-08-06T10:02:12;96054.66;;;15.46;92.31
75513;BME280;64090;49.770;18.760;2023-08-06T10:06:02;96059.71;;;15.51;91.87
75513;BME280;64090;49.770;18.760;2023-08-06T10:09:42;96061.44;;;15.49;91.28
75513;BME280;64090;49.770;18.760;2023-08-06T10:13:25;96065.23;;;15.41;91.42
75513;BME280;64090;49.770;18.760;2023-08-06T10:17:33;96070.64;;;15.41;91.67
75513;BME280;64090;49.770;18.760;2023-08-06T10:26:13;96080.96;;;15.51;90.62
75513;BME280;64090;49.770;18.760;2023-08-06T10:33:51;96082.03;;;15.45;91.46
75513;BME280;64090;49.770;18.760;2023-08-06T10:37:49;96081.63;;;15.56;90.89
75513;BME280;64090;49.770;18.760;2023-08-06T10:41:42;96080.96;;;15.60;90.67
75513;BME280;64090;49.770;18.760;2023-08-06T10:45:16;96076.41;;;15.71;90.84
75513;BME280;64090;49.770;18.760;2023-08-06T10:49:08;96076.13;;;15.83;89.76
75513;BME280;64090;49.770;18.760;2023-08-06T10:52:31;96075.89;;;15.93;89.94
75513;BME280;64090;49.770;18.760;2023-08-06T10:58:30;96081.19;;;16.19;88.41
75513;BME280;64090;49.770;18.760;2023-08-06T11:02:09;96082.89;;;16.20;88.84
75513;BME280;64090;49.770;18.760;2023-08-06T11:06:09;96086.23;;;16.23;88.18
75513;BME280;64090;49.770;18.760;2023-08-06T11:10:04;96094.77;;;16.23;87.65
75513;BME280;64090;49.770;18.760;2023-08-06T11:13:55;96104.61;;;16.13;88.04
75513;BME280;64090;49.770;18.760;2023-08-06T11:17:39;96108.26;;;16.18;87.99
75513;BME280;64090;49.770;18.760;2023-08-06T11:21:23;96121.55;;;16.20;87.39
75513;BME280;64090;49.770;18.760;2023-08-06T11:25:05;96126.37;;;16.20;87.93
75513;BME280;64090;49.770;18.760;2023-08-06T11:28:41;96135.96;;;16.01;88.42
75513;BME280;64090;49.770;18.760;2023-08-06T11:32:04;96141.88;;;16.07;89.16
75513;BME280;64090;49.770;18.760;2023-08-06T11:35:29;96149.67;;;16.10;89.78
75513;BME280;64090;49.770;18.760;2023-08-06T11:39:01;96154.59;;;16.13;89.28
75513;BME280;64090;49.770;18.760;2023-08-06T11:42:45;96162.48;;;16.10;89.03
75513;BME280;64090;49.770;18.760;2023-08-06T11:46:09;96165.45;;;16.06;89.23
75513;BME280;64090;49.770;18.760;2023-08-06T11:49:45;96172.94;;;16.12;89.11
75513;BME280;64090;49.770;18.760;2023-08-06T11:53:51;96178.20;;;16.02;89.68
75513;BME280;64090;49.770;18.760;2023-08-06T11:57:18;96183.21;;;15.91;89.82
75513;BME280;64090;49.770;18.760;2023-08-06T12:00:42;96189.14;;;15.86;89.85
75513;BME280;64090;49.770;18.760;2023-08-06T12:04:04;96188.22;;;15.85;89.43
75513;BME280;64090;49.770;18.760;2023-08-06T12:10:14;96189.58;;;15.93;89.56
75513;BME280;64090;49.770;18.760;2023-08-06T12:13:41;96186.15;;;15.99;89.33
75513;BME280;64090;49.770;18.760;2023-08-06T12:16:55;96179.61;;;16.15;88.63
75513;BME280;64090;49.770;18.760;2023-08-06T12:20:19;96171.63;;;16.35;88.50
75513;BME280;64090;49.770;18.760;2023-08-06T12:26:25;96166.02;;;16.68;85.96
75513;BME280;64090;49.770;18.760;2023-08-06T12:30:11;96167.02;;;16.77;85.77
75513;BME280;64090;49.770;18.760;2023-08-06T12:33:33;96166.23;;;16.99;86.23
75513;BME280;64090;49.770;18.760;2023-08-06T12:37:03;96157.55;;;17.22;85.79
75513;BME280;64090;49.770;18.760;2023-08-06T12:40:37;96157.88;;;17.10;84.58
75513;BME280;64090;49.770;18.760;2023-08-06T12:44:12;96158.13;;;17.08;84.98
75513;BME280;64090;49.770;18.760;2023-08-06T12:47:35;96161.85;;;17.29;84.38
75513;BME280;64090;49.770;18.760;2023-08-06T12:51:03;96167.38;;;17.51;82.56
75513;BME280;64090;49.770;18.760;2023-08-06T12:54:42;96172.96;;;17.52;83.05
75513;BME280;64090;49.770;18.760;2023-08-06T12:58:00;96173.84;;;17.86;83.99
75513;BME280;64090;49.770;18.760;2023-08-06T13:01:58;96177.54;;;18.16;82.57
75513;BME280;64090;49.770;18.760;2023-08-06T13:05:11;96179.48;;;18.36;82.43
75513;BME280;64090;49.770;18.760;2023-08-06T13:08:57;96181.36;;;18.66;81.17
75513;BME280;64090;49.770;18.760;2023-08-06T13:12:20;96188.70;;;18.99;80.33
75513;BME280;64090;49.770;18.760;2023-08-06T13:15:53;96192.61;;;19.35;80.13
75513;BME280;64090;49.770;18.760;2023-08-06T13:19:27;96195.08;;;19.72;77.16
75513;BME280;64090;49.770;18.760;2023-08-06T13:22:50;96190.39;;;20.06;76.32
75513;BME280;64090;49.770;18.760;2023-08-06T13:26:30;96190.74;;;20.17;74.92
75513;BME280;64090;49.770;18.760;2023-08-06T13:29:55;96199.02;;;20.13;74.14
75513;BME280;64090;49.770;18.760;2023-08-06T13:33:18;96200.23;;;19.76;73.02
75513;BME280;64090;49.770;18.760;2023-08-06T13:36:49;96188.08;;;19.65;73.30
75513;BME280;64090;49.770;18.760;2023-08-06T13:40:09;96193.34;;;19.45;72.87
75513;BME280;64090;49.770;18.760;2023-08-06T13:43:30;96200.12;;;19.15;74.29
75513;BME280;64090;49.770;18.760;2023-08-06T13:46:50;96202.27;;;19.10;75.34
75513;BME280;64090;49.770;18.760;2023-08-06T13:50:14;96191.48;;;19.18;74.24
75513;BME280;64090;49.770;18.760;2023-08-06T13:53:47;96194.58;;;19.03;73.33
75513;BME280;64090;49.770;18.760;2023-08-06T13:57:11;96200.88;;;19.00;73.90
75513;BME280;64090;49.770;18.760;2023-08-06T14:00:35;96205.35;;;18.81;75.43
75513;BME280;64090;49.770;18.760;2023-08-06T14:04:15;96204.51;;;18.50;75.92
75513;BME280;64090;49.770;18.760;2023-08-06T14:07:38;96210.14;;;18.23;77.22
75513;BME280;64090;49.770;18.760;2023-08-06T14:11:06;96216.07;;;17.95;78.58
75513;BME280;64090;49.770;18.760;2023-08-06T14:14:33;96226.50;;;17.69;79.41
75513;BME280;64090;49.770;18.760;2023-08-06T14:17:51;96228.44;;;17.42;81.10
75513;BME280;64090;49.770;18.760;2023-08-06T14:21:19;96227.77;;;17.23;81.08
75513;BME280;64090;49.770;18.760;2023-08-06T14:24:46;96230.19;;;17.08;81.18
75513;BME280;64090;49.770;18.760;2023-08-06T14:28:23;96241.36;;;16.97;81.69
75513;BME280;64090;49.770;18.760;2023-08-06T14:31:25;96249.19;;;16.81;82.38
75513;BME280;64090;49.770;18.760;2023-08-06T14:35:13;96260.44;;;16.52;83.01
75513;BME280;64090;49.770;18.760;2023-08-06T14:38:36;96264.98;;;16.35;83.72
75513;BME280;64090;49.770;18.760;2023-08-06T14:42:17;96267.13;;;16.33;83.65
75513;BME280;64090;49.770;18.760;2023-08-06T14:45:45;96271.73;;;16.35;83.70
75513;BME280;64090;49.770;18.760;2023-08-06T14:52:36;96283.52;;;16.43;83.37
75513;BME280;64090;49.770;18.760;2023-08-06T14:55:45;96285.98;;;16.30;84.16
75513;BME280;64090;49.770;18.760;2023-08-06T14:59:09;96292.45;;;16.32;84.09
75513;BME280;64090;49.770;18.760;2023-08-06T15:02:35;96290.38;;;16.38;83.64
75513;BME280;64090;49.770;18.760;2023-08-06T15:05:59;96298.80;;;16.37;83.40
75513;BME280;64090;49.770;18.760;2023-08-06T15:09:31;96298.14;;;16.24;83.67
75513;BME280;64090;49.770;18.760;2023-08-06T15:13:08;96298.10;;;16.19;84.69
75513;BME280;64090;49.770;18.760;2023-08-06T15:16:26;96298.91;;;16.20;84.58
75513;BME280;64090;49.770;18.760;2023-08-06T15:19:55;96298.09;;;16.11;84.97
75513;BME280;64090;49.770;18.760;2023-08-06T15:23:28;96305.55;;;16.09;84.66
75513;BME280;64090;49.770;18.760;2023-08-06T15:27:13;96318.05;;;15.95;85.05
75513;BME280;64090;49.770;18.760;2023-08-06T15:30:54;96315.52;;;15.87;85.64
75513;BME280;64090;49.770;18.760;2023-08-06T15:34:12;96313.06;;;15.96;85.06
75513;BME280;64090;49.770;18.760;2023-08-06T15:37:34;96315.27;;;16.07;85.41
75513;BME280;64090;49.770;18.760;2023-08-06T15:41:01;96321.41;;;16.10;85.40
75513;BME280;64090;49.770;18.760;2023-08-06T15:44:48;96322.73;;;16.03;85.62
75513;BME280;64090;49.770;18.760;2023-08-06T15:48:25;96324.05;;;15.95;85.89
75513;BME280;64090;49.770;18.760;2023-08-06T15:51:50;96322.95;;;15.90;85.85
75513;BME280;64090;49.770;18.760;2023-08-06T15:55:16;96330.97;;;15.82;86.39
75513;BME280;64090;49.770;18.760;2023-08-06T15:59:20;96333.89;;;15.68;86.64
75513;BME280;64090;49.770;18.760;2023-08-06T16:02:49;96342.83;;;15.42;88.56
75513;BME280;64090;49.770;18.760;2023-08-06T16:06:13;96357.68;;;15.34;88.33
75513;BME280;64090;49.770;18.760;2023-08-06T16:09:39;96360.25;;;15.35;88.02
75513;BME280;64090;49.770;18.760;2023-08-06T16:13:03;96367.89;;;15.41;89.43
75513;BME280;64090;49.770;18.760;2023-08-06T16:16:24;96359.05;;;15.48;89.21
75513;BME280;64090;49.770;18.760;2023-08-06T16:23:06;96363.42;;;15.61;88.18
75513;BME280;64090;49.770;18.760;2023-08-06T16:26:19;96367.45;;;15.57;88.53
75513;BME280;64090;49.770;18.760;2023-08-06T16:29:42;96368.36;;;15.53;88.52
75513;BME280;64090;49.770;18.760;2023-08-06T16:33:19;96378.34;;;15.51;88.83
75513;BME280;64090;49.770;18.760;2023-08-06T16:36:22;96380.33;;;15.44;89.18
75513;BME280;64090;49.770;18.760;2023-08-06T16:39:58;96388.15;;;15.37;89.38
75513;BME280;64090;49.770;18.760;2023-08-06T16:43:21;96398.12;;;15.33;89.73
75513;BME280;64090;49.770;18.760;2023-08-06T16:46:56;96406.10;;;15.24;90.34
75513;BME280;64090;49.770;18.760;2023-08-06T16:50:29;96418.66;;;15.15;90.47
75513;BME280;64090;49.770;18.760;2023-08-06T16:54:01;96419.84;;;15.06;90.99
75513;BME280;64090;49.770;18.760;2023-08-06T16:57:27;96423.22;;;15.00;90.08
75513;BME280;64090;49.770;18.760;2023-08-06T17:00:49;96423.80;;;14.90;90.00
75513;BME280;64090;49.770;18.760;2023-08-06T17:04:19;96430.05;;;14.86;91.24
75513;BME280;64090;49.770;18.760;2023-08-06T17:08:26;96426.40;;;14.81;90.47
75513;BME280;64090;49.770;18.760;2023-08-06T17:11:54;96420.61;;;14.77;90.84
75513;BME280;64090;49.770;18.760;2023-08-06T17:15:10;96420.39;;;14.73;92.61
75513;BME280;64090;49.770;18.760;2023-08-06T17:19:00;96421.88;;;14.71;92.26
75513;BME280;64090;49.770;18.760;2023-08-06T17:22:24;96426.36;;;14.68;93.49
75513;BME280;64090;49.770;18.760;2023-08-06T17:25:54;96433.63;;;14.63;92.92
75513;BME280;64090;49.770;18.760;2023-08-06T17:29:20;96440.99;;;14.57;93.78
75513;BME280;64090;49.770;18.760;2023-08-06T17:32:48;96439.25;;;14.52;95.40
75513;BME280;64090;49.770;18.760;2023-08-06T17:36:35;96447.19;;;14.49;95.25
75513;BME280;64090;49.770;18.760;2023-08-06T17:40:02;96443.82;;;14.46;93.99